createdAt,value
2017-08-11T00:00:32.648Z,15.43
2017-08-11T00:01:42.928Z,15.3
2017-08-11T00:02:53.470Z,15.29
2017-08-11T00:04:03.771Z,15.26
2017-08-11T00:05:14.050Z,15.25
2017-08-11T00:06:24.327Z,15.23
2017-08-11T00:07:34.606Z,15.1
2017-08-11T00:08:45.141Z,15.11
2017-08-11T00:09:54.804Z,15
2017-08-11T00:11:04.784Z,15.04
2017-08-11T00:12:15.073Z,14.99
2017-08-11T00:13:25.378Z,14.86
2017-08-11T00:14:35.902Z,14.9
2017-08-11T00:15:47.087Z,14.85
2017-08-11T00:16:57.386Z,14.79
2017-08-11T00:18:07.650Z,14.81
2017-08-11T00:19:17.920Z,14.71
2017-08-11T00:20:27.829Z,14.71
2017-08-11T00:21:37.814Z,14.59
2017-08-11T00:22:48.087Z,14.63
2017-08-11T00:23:58.071Z,14.67
2017-08-11T00:25:08.042Z,14.63
2017-08-11T00:26:18.570Z,14.52
2017-08-11T00:27:28.855Z,14.49
2017-08-11T00:28:38.863Z,14.48
2017-08-11T00:29:48.524Z,14.44
2017-08-11T00:30:58.512Z,14.44
2017-08-11T00:32:09.102Z,14.49
2017-08-11T00:33:18.759Z,14.43
2017-08-11T00:34:28.749Z,14.45
2017-08-11T00:35:39.074Z,14.43
2017-08-11T00:36:49.041Z,14.43
2017-08-11T00:37:59.324Z,14.41
2017-08-11T00:39:09.300Z,14.44
2017-08-11T00:40:19.258Z,14.58
2017-08-11T00:41:28.915Z,14.44
2017-08-11T00:42:38.577Z,14.53
2017-08-11T00:43:49.109Z,14.53
2017-08-11T00:44:58.760Z,14.58
2017-08-11T00:46:08.404Z,14.53
2017-08-11T00:47:18.080Z,14.49
2017-08-11T00:48:27.753Z,14.49
2017-08-11T00:49:37.966Z,14.62
2017-08-11T00:50:47.615Z,14.53
2017-08-11T00:51:58.039Z,14.53
2017-08-11T00:53:07.685Z,14.52
2017-08-11T00:54:17.646Z,14.58
2017-08-11T00:55:28.432Z,14.62
2017-08-11T00:56:38.404Z,14.63
2017-08-11T00:57:47.446Z,14.66
2017-08-11T00:58:57.727Z,14.73
2017-08-11T01:00:08.010Z,14.73
2017-08-11T01:01:18.204Z,14.71
2017-08-11T01:02:28.165Z,14.74
2017-08-11T01:03:37.809Z,14.78
2017-08-11T01:04:47.164Z,14.81
2017-08-11T01:05:57.123Z,14.89
2017-08-11T01:07:06.716Z,14.89
2017-08-11T01:08:16.371Z,14.87
2017-08-11T01:09:26.030Z,14.86
2017-08-11T01:10:35.985Z,14.86
2017-08-11T01:11:45.956Z,14.82
2017-08-11T01:12:55.563Z,14.87
2017-08-11T01:14:05.537Z,14.89
2017-08-11T01:15:15.199Z,14.94
2017-08-11T01:16:25.184Z,15.04
2017-08-11T01:17:35.152Z,14.94
2017-08-11T01:18:45.388Z,14.96
2017-08-11T01:19:55.352Z,14.86
2017-08-11T01:21:05.031Z,14.99
2017-08-11T01:22:15.007Z,15
2017-08-11T01:23:24.370Z,14.93
2017-08-11T01:24:34.281Z,14.94
2017-08-11T01:25:43.937Z,14.94
2017-08-11T01:26:53.906Z,14.99
2017-08-11T01:28:03.905Z,14.96
2017-08-11T01:29:14.191Z,14.94
2017-08-11T01:30:24.092Z,14.99
2017-08-11T01:31:33.752Z,14.99
2017-08-11T01:32:43.716Z,14.99
2017-08-11T01:33:53.684Z,14.99
2017-08-11T01:35:03.963Z,15
2017-08-11T01:36:13.861Z,15.1
2017-08-11T01:37:23.826Z,15.02
2017-08-11T01:38:33.798Z,15.04
2017-08-11T01:39:44.088Z,15.07
2017-08-11T01:40:53.743Z,14.99
2017-08-11T01:42:04.337Z,15.07
2017-08-11T01:43:14.604Z,15.1
2017-08-11T01:44:24.879Z,15.02
2017-08-11T01:45:34.843Z,15.11
2017-08-11T01:46:44.519Z,15.07
2017-08-11T01:47:55.049Z,15.14
2017-08-11T01:49:05.017Z,15.07
2017-08-11T01:50:14.999Z,15.08
2017-08-11T01:51:25.299Z,15.17
2017-08-11T01:52:35.273Z,15.15
2017-08-11T01:53:45.487Z,15.11
2017-08-11T01:54:55.773Z,15.18
2017-08-11T01:56:06.053Z,15.19
2017-08-11T01:57:16.015Z,15.25
2017-08-11T01:58:26.290Z,15.26
2017-08-11T01:59:36.509Z,15.25
2017-08-11T02:00:46.470Z,15.26
2017-08-11T02:01:56.127Z,15.29
2017-08-11T02:03:05.780Z,15.27
2017-08-11T02:04:15.749Z,15.27
2017-08-11T02:05:26.296Z,15.33
2017-08-11T02:06:35.971Z,15.37
2017-08-11T02:07:45.930Z,15.27
2017-08-11T02:08:56.205Z,15.35
2017-08-11T02:10:05.864Z,15.39
2017-08-11T02:11:16.394Z,15.39
2017-08-11T02:12:26.358Z,15.41
2017-08-11T02:13:36.332Z,15.43
2017-08-11T02:14:46.591Z,15.41
2017-08-11T02:15:56.878Z,15.44
2017-08-11T02:17:07.419Z,15.48
2017-08-11T02:18:17.392Z,15.51
2017-08-11T02:19:27.661Z,15.47
2017-08-11T02:20:37.644Z,15.41
2017-08-11T02:21:47.308Z,15.48
2017-08-11T02:22:57.848Z,15.51
2017-08-11T02:24:07.509Z,15.59
2017-08-11T02:25:17.481Z,15.54
2017-08-11T02:26:27.138Z,15.62
2017-08-11T02:27:37.431Z,15.69
2017-08-11T02:28:47.648Z,15.73
2017-08-11T02:29:57.929Z,15.67
2017-08-11T02:31:08.203Z,15.78
2017-08-11T02:32:18.180Z,15.76
2017-08-11T02:33:28.155Z,15.78
2017-08-11T02:34:38.676Z,15.83
2017-08-11T02:35:48.033Z,15.83
2017-08-11T02:36:57.678Z,15.84
2017-08-11T02:38:07.960Z,15.88
2017-08-11T02:39:18.245Z,15.78
2017-08-11T02:40:28.457Z,15.81
2017-08-11T02:41:38.728Z,15.8
2017-08-11T02:42:48.389Z,15.76
2017-08-11T02:43:58.669Z,15.75
2017-08-11T02:45:08.648Z,15.73
2017-08-11T02:46:19.167Z,15.76
2017-08-11T02:47:29.142Z,15.85
2017-08-11T02:48:39.425Z,15.87
2017-08-11T02:49:49.695Z,15.84
2017-08-11T02:50:59.661Z,15.88
2017-08-11T02:52:09.888Z,15.85
2017-08-11T02:53:19.855Z,15.91
2017-08-11T02:54:29.830Z,15.85
2017-08-11T02:55:39.802Z,15.75
2017-08-11T02:56:50.101Z,15.87
2017-08-11T02:58:00.328Z,15.8
2017-08-11T02:59:10.285Z,15.75
2017-08-11T03:00:19.324Z,15.85
2017-08-11T03:01:29.298Z,15.85
2017-08-11T03:02:38.964Z,15.85
2017-08-11T03:03:49.167Z,15.81
2017-08-11T03:04:59.450Z,15.92
2017-08-11T03:06:09.418Z,15.84
2017-08-11T03:07:19.719Z,15.84
2017-08-11T03:08:29.994Z,15.88
2017-08-11T03:09:39.897Z,15.88
2017-08-11T03:10:50.180Z,15.96
2017-08-11T03:12:00.157Z,15.96
2017-08-11T03:13:10.431Z,16.02
2017-08-11T03:14:20.711Z,16.05
2017-08-11T03:15:30.920Z,16
2017-08-11T03:16:41.191Z,16.02
2017-08-11T03:17:51.181Z,16.1
2017-08-11T03:19:01.449Z,16.08
2017-08-11T03:20:11.103Z,16.09
2017-08-11T03:21:21.321Z,16.13
2017-08-11T03:22:31.610Z,16.25
2017-08-11T03:23:41.890Z,16.22
2017-08-11T03:24:52.158Z,16.25
2017-08-11T03:26:01.506Z,16.39
2017-08-11T03:27:11.412Z,16.39
2017-08-11T03:28:21.074Z,16.29
2017-08-11T03:29:31.050Z,16.39
2017-08-11T03:30:41.026Z,16.36
2017-08-11T03:31:50.998Z,16.39
2017-08-11T03:33:01.517Z,16.46
2017-08-11T03:34:11.488Z,16.4
2017-08-11T03:35:21.152Z,16.29
2017-08-11T03:36:31.428Z,16.41
2017-08-11T03:37:41.703Z,16.36
2017-08-11T03:38:52.225Z,16.43
2017-08-11T03:40:02.209Z,16.43
2017-08-11T03:41:12.174Z,16.4
2017-08-11T03:42:21.840Z,16.44
2017-08-11T03:43:31.822Z,16.47
2017-08-11T03:44:41.717Z,16.47
2017-08-11T03:45:51.372Z,16.59
2017-08-11T03:47:01.657Z,16.54
2017-08-11T03:48:11.616Z,16.51
2017-08-11T03:49:21.586Z,16.5
2017-08-11T03:50:32.133Z,16.61
2017-08-11T03:51:42.116Z,16.58
2017-08-11T03:52:52.083Z,16.54
2017-08-11T03:54:01.433Z,16.64
2017-08-11T03:55:11.094Z,16.58
2017-08-11T03:56:21.320Z,16.65
2017-08-11T03:57:31.281Z,16.61
2017-08-11T03:58:40.969Z,16.64
2017-08-11T03:59:51.254Z,16.69
2017-08-11T04:01:00.915Z,16.77
2017-08-11T04:02:11.452Z,16.8
2017-08-11T04:03:21.434Z,16.84
2017-08-11T04:04:31.401Z,16.82
2017-08-11T04:05:41.377Z,16.86
2017-08-11T04:06:51.350Z,16.79
2017-08-11T04:08:01.572Z,16.91
2017-08-11T04:09:11.536Z,16.94
2017-08-11T04:10:21.498Z,16.92
2017-08-11T04:11:31.495Z,16.99
2017-08-11T04:12:41.763Z,16.94
2017-08-11T04:13:51.972Z,16.98
2017-08-11T04:15:02.253Z,17.05
2017-08-11T04:16:12.222Z,17.05
2017-08-11T04:17:22.191Z,17.07
2017-08-11T04:18:31.860Z,16.99
2017-08-11T04:19:42.400Z,17.17
2017-08-11T04:20:52.681Z,17.04
2017-08-11T04:22:02.631Z,17.09
2017-08-11T04:23:12.900Z,17.12
2017-08-11T04:24:22.862Z,17.12
2017-08-11T04:25:33.092Z,17.09
2017-08-11T04:26:43.378Z,17.1
2017-08-11T04:27:53.039Z,17.12
2017-08-11T04:29:03.008Z,17.04
2017-08-11T04:30:13.279Z,17.07
2017-08-11T04:31:23.815Z,17.12
2017-08-11T04:32:33.779Z,17.1
2017-08-11T04:33:44.051Z,17.16
2017-08-11T04:34:54.029Z,17.23
2017-08-11T04:36:04.314Z,17.16
2017-08-11T04:37:14.528Z,17.16
2017-08-11T04:38:24.809Z,17.23
2017-08-11T04:39:35.094Z,17.27
2017-08-11T04:40:45.372Z,17.24
2017-08-11T04:41:55.342Z,17.22
2017-08-11T04:43:05.858Z,17.28
2017-08-11T04:44:15.831Z,17.24
2017-08-11T04:45:25.811Z,17.23
2017-08-11T04:46:35.773Z,17.28
2017-08-11T04:47:45.745Z,17.34
2017-08-11T04:48:56.290Z,17.37
2017-08-11T04:50:06.271Z,17.37
2017-08-11T04:51:16.558Z,17.31
2017-08-11T04:52:26.525Z,17.27
2017-08-11T04:53:36.802Z,17.37
2017-08-11T04:54:47.586Z,17.3
2017-08-11T04:55:57.855Z,17.32
2017-08-11T04:57:07.829Z,17.22
2017-08-11T04:58:18.120Z,17.27
2017-08-11T04:59:28.408Z,17.28
2017-08-11T05:00:38.948Z,17.37
2017-08-11T05:01:48.915Z,17.38
2017-08-11T05:02:59.207Z,17.35
2017-08-11T05:04:08.553Z,17.34
2017-08-11T05:05:18.826Z,17.35
2017-08-11T05:06:29.049Z,17.34
2017-08-11T05:07:39.324Z,17.35
2017-08-11T05:08:49.488Z,17.37
2017-08-11T05:09:59.766Z,17.35
2017-08-11T05:11:09.726Z,17.38
2017-08-11T05:12:20.250Z,17.35
2017-08-11T05:13:30.199Z,17.41
2017-08-11T05:14:40.167Z,17.38
2017-08-11T05:15:50.224Z,17.49
2017-08-11T05:17:00.473Z,17.5
2017-08-11T05:18:10.386Z,17.54
2017-08-11T05:19:20.032Z,17.49
2017-08-11T05:20:30.009Z,17.46
2017-08-11T05:21:40.282Z,17.52
2017-08-11T05:22:50.564Z,17.54
2017-08-11T05:24:01.098Z,17.52
2017-08-11T05:25:11.080Z,17.46
2017-08-11T05:26:21.374Z,17.49
2017-08-11T05:27:31.384Z,17.5
2017-08-11T05:28:41.655Z,17.5
2017-08-11T05:29:52.177Z,17.46
2017-08-11T05:31:02.150Z,17.52
2017-08-11T05:32:12.116Z,17.5
2017-08-11T05:33:22.089Z,17.49
2017-08-11T05:34:32.355Z,17.5
2017-08-11T05:35:42.902Z,17.39
2017-08-11T05:36:53.174Z,17.42
2017-08-11T05:38:03.448Z,17.41
2017-08-11T05:39:13.720Z,17.39
2017-08-11T05:40:23.692Z,17.37
2017-08-11T05:41:33.907Z,17.42
2017-08-11T05:42:43.869Z,17.37
2017-08-11T05:43:54.172Z,17.37
2017-08-11T05:45:04.456Z,17.37
2017-08-11T05:46:14.423Z,17.37
2017-08-11T05:47:24.949Z,17.34
2017-08-11T05:48:35.227Z,17.41
2017-08-11T05:49:45.193Z,17.41
2017-08-11T05:50:55.470Z,17.47
2017-08-11T05:52:05.434Z,17.52
2017-08-11T05:53:15.974Z,17.47
2017-08-11T05:54:26.252Z,17.52
2017-08-11T05:55:36.538Z,17.54
2017-08-11T05:56:46.517Z,17.46
2017-08-11T05:57:56.791Z,17.49
2017-08-11T05:59:07.319Z,17.6
2017-08-11T06:00:17.612Z,17.53
2017-08-11T06:01:27.568Z,17.6
2017-08-11T06:02:37.873Z,17.65
2017-08-11T06:03:48.153Z,17.68
2017-08-11T06:04:58.359Z,17.66
2017-08-11T06:06:08.626Z,17.6
2017-08-11T06:07:18.617Z,17.63
2017-08-11T06:08:28.587Z,17.68
2017-08-11T06:09:38.901Z,17.71
2017-08-11T06:10:49.127Z,17.63
2017-08-11T06:11:59.098Z,17.78
2017-08-11T06:13:09.053Z,17.73
2017-08-11T06:14:19.335Z,17.72
2017-08-11T06:15:29.613Z,17.69
2017-08-11T06:16:40.146Z,17.75
2017-08-11T06:17:50.115Z,17.79
2017-08-11T06:19:00.420Z,17.75
2017-08-11T06:20:10.716Z,17.8
2017-08-11T06:21:20.996Z,17.69
2017-08-11T06:22:31.933Z,17.71
2017-08-11T06:23:42.218Z,17.78
2017-08-11T06:24:52.509Z,17.72
2017-08-11T06:26:02.784Z,17.79
2017-08-11T06:27:12.761Z,17.75
2017-08-11T06:28:23.300Z,17.68
2017-08-11T06:29:33.590Z,17.71
2017-08-11T06:30:43.271Z,17.79
2017-08-11T06:31:53.554Z,17.73
2017-08-11T06:33:03.850Z,17.78
2017-08-11T06:34:14.067Z,17.78
2017-08-11T06:35:23.736Z,17.78
2017-08-11T06:36:34.025Z,17.84
2017-08-11T06:37:44.000Z,17.9
2017-08-11T06:38:54.274Z,17.84
2017-08-11T06:40:04.819Z,17.88
2017-08-11T06:41:15.101Z,17.93
2017-08-11T06:42:25.404Z,17.98
2017-08-11T06:43:35.683Z,18
2017-08-11T06:44:45.980Z,18.03
2017-08-11T06:45:56.503Z,18.03
2017-08-11T06:47:06.788Z,17.95
2017-08-11T06:48:16.749Z,17.84
2017-08-11T06:49:27.029Z,17.73
2017-08-11T06:50:36.693Z,17.6
2017-08-11T06:51:46.910Z,17.57
2017-08-11T06:52:57.183Z,17.66
2017-08-11T06:54:07.074Z,17.59
2017-08-11T06:55:17.055Z,17.68
2017-08-11T06:56:27.016Z,17.66
2017-08-11T06:57:37.537Z,17.65
2017-08-11T06:58:47.816Z,17.6
2017-08-11T06:59:58.104Z,17.65
2017-08-11T07:01:08.393Z,17.82
2017-08-11T07:02:18.376Z,17.82
2017-08-11T07:03:28.924Z,17.86
2017-08-11T07:04:39.199Z,17.9
2017-08-11T07:05:49.172Z,17.91
2017-08-11T07:06:59.482Z,17.94
2017-08-11T07:08:09.771Z,17.97
2017-08-11T07:09:20.020Z,17.95
2017-08-11T07:10:29.678Z,18
2017-08-11T07:11:39.648Z,18.08
2017-08-11T07:12:49.930Z,18.06
2017-08-11T07:14:00.236Z,18.24
2017-08-11T07:15:10.490Z,18.26
2017-08-11T07:16:20.780Z,18.21
2017-08-11T07:17:30.753Z,18.42
2017-08-11T07:18:41.037Z,18.36
2017-08-11T07:19:51.322Z,18.33
2017-08-11T07:21:01.848Z,18.3
2017-08-11T07:22:12.119Z,18.41
2017-08-11T07:23:22.086Z,18.41
2017-08-11T07:24:32.358Z,18.48
2017-08-11T07:25:42.690Z,18.46
2017-08-11T07:26:53.227Z,18.46
2017-08-11T07:28:03.518Z,18.48
2017-08-11T07:29:14.233Z,18.48
2017-08-11T07:30:24.532Z,18.63
2017-08-11T07:31:34.822Z,18.76
2017-08-11T07:32:45.042Z,18.83
2017-08-11T07:33:55.320Z,18.96
2017-08-11T07:35:05.288Z,19.01
2017-08-11T07:36:15.565Z,19.19
2017-08-11T07:37:25.836Z,19.2
2017-08-11T07:38:36.049Z,19.26
2017-08-11T07:39:46.019Z,19.29
2017-08-11T07:40:56.291Z,19.34
2017-08-11T07:42:06.582Z,19.24
2017-08-11T07:43:16.892Z,19.19
2017-08-11T07:44:27.422Z,19.09
2017-08-11T07:45:37.693Z,18.98
2017-08-11T07:46:47.655Z,18.94
2017-08-11T07:47:57.964Z,18.92
2017-08-11T07:49:08.235Z,18.88
2017-08-11T07:50:18.489Z,18.83
2017-08-11T07:51:28.775Z,18.83
2017-08-11T07:52:39.045Z,18.81
2017-08-11T07:53:49.351Z,18.76
2017-08-11T07:54:59.646Z,18.73
2017-08-11T07:56:09.877Z,18.68
2017-08-11T07:57:19.840Z,18.67
2017-08-11T07:58:30.115Z,18.6
2017-08-11T07:59:40.408Z,18.58
2017-08-11T08:00:50.684Z,18.58
2017-08-11T08:02:00.890Z,18.46
2017-08-11T08:03:10.533Z,18.52
2017-08-11T08:04:20.809Z,18.48
2017-08-11T08:05:31.091Z,18.51
2017-08-11T08:06:41.392Z,18.63
2017-08-11T08:07:51.927Z,18.71
2017-08-11T08:09:02.210Z,18.74
2017-08-11T08:10:12.489Z,18.73
2017-08-11T08:11:22.787Z,18.68
2017-08-11T08:12:32.766Z,18.64
2017-08-11T08:13:42.987Z,18.58
2017-08-11T08:14:53.264Z,18.64
2017-08-11T08:16:03.228Z,18.58
2017-08-11T08:17:12.897Z,18.58
2017-08-11T08:18:23.204Z,18.51
2017-08-11T08:19:33.424Z,18.43
2017-08-11T08:20:43.075Z,18.55
2017-08-11T08:21:53.379Z,18.46
2017-08-11T08:23:03.346Z,18.43
2017-08-11T08:24:13.624Z,18.49
2017-08-11T08:25:23.846Z,18.42
2017-08-11T08:26:33.832Z,18.45
2017-08-11T08:27:43.822Z,18.41
2017-08-11T08:28:53.790Z,18.45
2017-08-11T08:30:04.090Z,18.31
2017-08-11T08:31:14.052Z,18.3
2017-08-11T08:32:24.333Z,18.28
2017-08-11T08:33:34.627Z,18.24
2017-08-11T08:34:44.910Z,18.18
2017-08-11T08:35:54.280Z,18.09
2017-08-11T08:37:04.816Z,18.08
2017-08-11T08:38:14.474Z,18.09
2017-08-11T08:39:24.752Z,18.05
2017-08-11T08:40:35.049Z,17.98
2017-08-11T08:41:45.330Z,17.93
2017-08-11T08:42:54.928Z,17.97
2017-08-11T08:44:05.212Z,17.82
2017-08-11T08:45:15.512Z,17.87
2017-08-11T08:46:25.502Z,17.84
2017-08-11T08:47:35.478Z,17.84
2017-08-11T08:48:45.703Z,17.78
2017-08-11T08:49:56.010Z,17.82
2017-08-11T08:51:06.298Z,17.84
2017-08-11T08:52:16.290Z,17.87
2017-08-11T08:53:25.949Z,17.84
2017-08-11T08:54:36.499Z,17.87
2017-08-11T08:55:46.464Z,17.91
2017-08-11T08:56:56.442Z,17.88
2017-08-11T08:58:06.727Z,17.94
2017-08-11T08:59:17.008Z,17.97
2017-08-11T09:00:27.224Z,17.93
2017-08-11T09:01:37.490Z,17.93
2017-08-11T09:02:47.774Z,17.94
2017-08-11T09:03:57.742Z,18.02
2017-08-11T09:05:08.038Z,17.97
2017-08-11T09:06:18.261Z,18.08
2017-08-11T09:07:28.244Z,18.03
2017-08-11T09:08:37.915Z,17.97
2017-08-11T09:09:48.191Z,17.97
2017-08-11T09:10:58.476Z,18
2017-08-11T09:12:08.708Z,17.97
2017-08-11T09:13:18.986Z,17.91
2017-08-11T09:14:28.972Z,17.84
2017-08-11T09:15:38.938Z,17.8
2017-08-11T09:16:49.211Z,17.76
2017-08-11T09:17:59.747Z,17.69
2017-08-11T09:19:09.730Z,17.73
2017-08-11T09:20:20.023Z,17.66
2017-08-11T09:21:29.990Z,17.65
2017-08-11T09:22:40.285Z,17.65
2017-08-11T09:23:50.816Z,17.66
2017-08-11T09:25:01.095Z,17.68
2017-08-11T09:26:11.378Z,17.66
2017-08-11T09:27:21.373Z,17.57
2017-08-11T09:28:31.664Z,17.6
2017-08-11T09:29:41.881Z,17.57
2017-08-11T09:30:52.164Z,17.54
2017-08-11T09:32:02.127Z,17.65
2017-08-11T09:33:12.401Z,17.52
2017-08-11T09:34:22.375Z,17.52
2017-08-11T09:35:32.602Z,17.57
2017-08-11T09:36:42.881Z,17.49
2017-08-11T09:37:52.856Z,17.52
2017-08-11T09:39:03.133Z,17.49
2017-08-11T09:40:13.421Z,17.52
2017-08-11T09:41:23.368Z,17.46
2017-08-11T09:42:33.354Z,17.52
2017-08-11T09:43:43.329Z,17.53
2017-08-11T09:44:53.597Z,17.49
2017-08-11T09:46:03.862Z,17.63
2017-08-11T09:47:14.390Z,17.63
2017-08-11T09:48:24.668Z,17.68
2017-08-11T09:49:34.959Z,17.65
2017-08-11T09:50:45.232Z,17.56
2017-08-11T09:51:55.519Z,17.52
2017-08-11T09:53:06.057Z,17.49
2017-08-11T09:54:16.358Z,17.44
2017-08-11T09:55:26.654Z,17.47
2017-08-11T09:56:36.974Z,17.47
2017-08-11T09:57:47.255Z,17.5
2017-08-11T09:58:57.768Z,17.54
2017-08-11T10:00:08.051Z,17.47
2017-08-11T10:01:18.325Z,17.5
2017-08-11T10:02:28.290Z,17.49
2017-08-11T10:03:38.563Z,17.44
2017-08-11T10:04:49.109Z,17.49
2017-08-11T10:05:59.088Z,17.44
2017-08-11T10:07:09.366Z,17.46
2017-08-11T10:08:18.714Z,17.37
2017-08-11T10:09:29.014Z,17.38
2017-08-11T10:10:39.230Z,17.41
2017-08-11T10:11:49.516Z,17.46
2017-08-11T10:12:59.796Z,17.47
2017-08-11T10:14:09.760Z,17.65
2017-08-11T10:15:20.040Z,17.69
2017-08-11T10:16:30.294Z,17.66
2017-08-11T10:17:40.267Z,17.68
2017-08-11T10:18:50.539Z,17.65
2017-08-11T10:20:00.819Z,17.68
2017-08-11T10:21:11.096Z,17.65
2017-08-11T10:22:21.661Z,17.6
2017-08-11T10:23:31.638Z,17.72
2017-08-11T10:24:41.944Z,17.63
2017-08-11T10:25:52.239Z,17.69
2017-08-11T10:27:02.212Z,17.66
2017-08-11T10:28:12.426Z,17.66
2017-08-11T10:29:22.706Z,17.49
2017-08-11T10:30:32.704Z,17.44
2017-08-11T10:31:42.674Z,17.49
2017-08-11T10:32:52.957Z,17.53
2017-08-11T10:34:03.182Z,17.47
2017-08-11T10:35:13.145Z,17.47
2017-08-11T10:36:23.422Z,17.44
2017-08-11T10:37:33.396Z,17.37
2017-08-11T10:38:43.370Z,17.44
2017-08-11T10:39:53.915Z,17.41
2017-08-11T10:41:04.200Z,17.42
2017-08-11T10:42:14.455Z,17.37
2017-08-11T10:43:24.744Z,17.47
2017-08-11T10:44:35.021Z,17.52
2017-08-11T10:45:45.566Z,17.49
2017-08-11T10:46:55.545Z,17.44
2017-08-11T10:48:05.516Z,17.53
2017-08-11T10:49:15.803Z,17.69
2017-08-11T10:50:26.088Z,17.68
2017-08-11T10:51:36.627Z,17.66
2017-08-11T10:52:46.917Z,17.63
2017-08-11T10:53:57.219Z,17.6
2017-08-11T10:55:06.876Z,17.57
2017-08-11T10:56:17.162Z,17.69
2017-08-11T10:57:27.386Z,17.78
2017-08-11T10:58:37.685Z,18.02
2017-08-11T10:59:47.646Z,18.19
2017-08-11T11:00:57.932Z,18.39
2017-08-11T11:02:07.952Z,18.3
2017-08-11T11:03:18.490Z,18.42
2017-08-11T11:04:28.153Z,18.6
2017-08-11T11:05:38.261Z,18.76
2017-08-11T11:06:47.933Z,18.79
2017-08-11T11:07:58.220Z,18.92
2017-08-11T11:09:08.782Z,19.04
2017-08-11T11:10:18.754Z,19.15
2017-08-11T11:11:29.039Z,19.27
2017-08-11T11:12:38.992Z,19.39
2017-08-11T11:13:49.277Z,19.39
2017-08-11T11:14:59.501Z,19.37
2017-08-11T11:16:09.780Z,19.45
2017-08-11T11:17:20.065Z,19.52
2017-08-11T11:18:30.354Z,19.7
2017-08-11T11:19:40.629Z,20
2017-08-11T11:20:51.175Z,20.44
2017-08-11T11:22:01.167Z,20.8
2017-08-11T11:23:11.437Z,21.23
2017-08-11T11:24:21.701Z,21.47
2017-08-11T11:25:32.003Z,21.62
2017-08-11T11:26:42.680Z,21.62
2017-08-11T11:27:52.997Z,21.65
2017-08-11T11:29:02.969Z,21.89
2017-08-11T11:30:13.277Z,22.23
2017-08-11T11:31:23.587Z,22.43
2017-08-11T11:32:33.513Z,22.65
2017-08-11T11:33:43.805Z,22.46
2017-08-11T11:34:54.099Z,22.31
2017-08-11T11:36:04.397Z,22.12
2017-08-11T11:37:14.688Z,22.01
2017-08-11T11:38:24.931Z,21.68
2017-08-11T11:39:35.218Z,21.29
2017-08-11T11:40:45.575Z,20.93
2017-08-11T11:41:55.873Z,20.8
2017-08-11T11:43:06.152Z,20.89
2017-08-11T11:44:16.712Z,20.75
2017-08-11T11:45:27.007Z,20.74
2017-08-11T11:46:37.287Z,20.55
2017-08-11T11:47:47.578Z,20.42
2017-08-11T11:48:57.880Z,20.5
2017-08-11T11:50:08.113Z,20.55
2017-08-11T11:51:18.412Z,20.64
2017-08-11T11:52:28.717Z,20.53
2017-08-11T11:53:38.385Z,20.19
2017-08-11T11:54:48.348Z,20.08
2017-08-11T11:55:58.562Z,19.96
2017-08-11T11:57:07.919Z,19.94
2017-08-11T11:58:18.191Z,19.77
2017-08-11T11:59:28.493Z,19.72
2017-08-11T12:00:38.142Z,19.72
2017-08-11T12:01:48.684Z,19.71
2017-08-11T12:02:58.964Z,19.66
2017-08-11T12:04:09.240Z,19.56
2017-08-11T12:05:19.525Z,19.41
2017-08-11T12:06:29.489Z,19.37
2017-08-11T12:07:39.398Z,19.42
2017-08-11T12:08:49.354Z,19.41
2017-08-11T12:09:59.639Z,19.34
2017-08-11T12:11:09.628Z,19.32
2017-08-11T12:12:19.975Z,19.39
2017-08-11T12:13:30.505Z,19.37
2017-08-11T12:14:40.498Z,19.3
2017-08-11T12:15:50.802Z,19.3
2017-08-11T12:17:01.086Z,19.29
2017-08-11T12:18:11.074Z,19.27
2017-08-11T12:19:21.311Z,19.39
2017-08-11T12:20:30.988Z,19.32
2017-08-11T12:21:40.966Z,19.38
2017-08-11T12:22:51.236Z,19.27
2017-08-11T12:24:01.218Z,19.34
2017-08-11T12:25:11.445Z,19.44
2017-08-11T12:26:21.727Z,19.47
2017-08-11T12:27:32.044Z,19.55
2017-08-11T12:28:42.022Z,19.48
2017-08-11T12:29:52.322Z,19.38
2017-08-11T12:31:02.856Z,19.39
2017-08-11T12:32:12.835Z,19.35
2017-08-11T12:33:23.148Z,19.37
2017-08-11T12:34:33.140Z,19.35
2017-08-11T12:35:43.452Z,19.35
2017-08-11T12:36:53.674Z,19.45
2017-08-11T12:38:03.660Z,19.44
2017-08-11T12:39:13.947Z,19.45
2017-08-11T12:40:23.596Z,19.42
2017-08-11T12:41:33.875Z,19.55
2017-08-11T12:42:44.087Z,19.39
2017-08-11T12:43:54.048Z,19.55
2017-08-11T12:45:04.340Z,19.49
2017-08-11T12:46:14.632Z,19.59
2017-08-11T12:47:24.627Z,19.49
2017-08-11T12:48:35.185Z,19.53
2017-08-11T12:49:45.163Z,19.55
2017-08-11T12:50:55.464Z,19.52
2017-08-11T12:52:05.733Z,19.57
2017-08-11T12:53:15.726Z,19.6
2017-08-11T12:54:26.250Z,19.57
2017-08-11T12:55:36.208Z,19.53
2017-08-11T12:56:46.502Z,19.53
2017-08-11T12:57:56.786Z,19.57
2017-08-11T12:59:07.079Z,19.53
2017-08-11T13:00:17.333Z,19.59
2017-08-11T13:01:27.631Z,19.6
2017-08-11T13:02:37.923Z,19.62
2017-08-11T13:03:48.199Z,19.55
2017-08-11T13:04:58.483Z,19.67
2017-08-11T13:06:09.009Z,19.67
2017-08-11T13:07:19.292Z,19.53
2017-08-11T13:08:29.567Z,19.59
2017-08-11T13:09:39.852Z,19.53
2017-08-11T13:10:49.819Z,19.55
2017-08-11T13:12:00.362Z,19.57
2017-08-11T13:13:10.665Z,19.63
2017-08-11T13:14:20.639Z,19.66
2017-08-11T13:15:30.946Z,19.59
2017-08-11T13:16:40.926Z,19.63
2017-08-11T13:17:51.470Z,19.66
2017-08-11T13:19:01.777Z,19.72
2017-08-11T13:20:11.740Z,19.66
2017-08-11T13:21:22.011Z,19.72
2017-08-11T13:22:31.980Z,19.79
2017-08-11T13:23:42.259Z,19.96
2017-08-11T13:24:52.235Z,20.19
2017-08-11T13:26:02.522Z,20.17
2017-08-11T13:27:12.517Z,20.11
2017-08-11T13:28:22.825Z,20.21
2017-08-11T13:29:33.046Z,20.26
2017-08-11T13:30:43.356Z,20.19
2017-08-11T13:31:53.633Z,20.37
2017-08-11T13:33:03.928Z,20.44
2017-08-11T13:34:14.223Z,20.55
2017-08-11T13:35:24.463Z,20.59
2017-08-11T13:36:34.748Z,20.75
2017-08-11T13:37:45.045Z,20.83
2017-08-11T13:38:55.318Z,20.74
2017-08-11T13:40:05.292Z,20.78
2017-08-11T13:41:15.884Z,20.73
2017-08-11T13:42:26.167Z,20.93
2017-08-11T13:43:35.836Z,21.13
2017-08-11T13:44:45.823Z,21.32
2017-08-11T13:45:55.487Z,21.56
2017-08-11T13:47:05.750Z,21.44
2017-08-11T13:48:16.079Z,21.43
2017-08-11T13:49:26.372Z,21.38
2017-08-11T13:50:36.659Z,21.23
2017-08-11T13:51:46.623Z,21.26
2017-08-11T13:52:56.857Z,21.11
2017-08-11T13:54:07.139Z,21.17
2017-08-11T13:55:16.803Z,21.04
2017-08-11T13:56:27.094Z,20.92
2017-08-11T13:57:37.376Z,21.07
2017-08-11T13:58:47.598Z,21.14
2017-08-11T13:59:57.584Z,21.22
2017-08-11T14:01:07.876Z,21.32
2017-08-11T14:02:17.843Z,21.41
2017-08-11T14:03:27.814Z,21.58
2017-08-11T14:04:38.422Z,21.45
2017-08-11T14:05:48.721Z,21.44
2017-08-11T14:06:58.692Z,21.48
2017-08-11T14:08:08.354Z,21.47
2017-08-11T14:09:18.329Z,21.62
2017-08-11T14:10:28.894Z,21.74
2017-08-11T14:11:39.192Z,21.83
2017-08-11T14:12:49.474Z,22.01
2017-08-11T14:13:59.459Z,22.1
2017-08-11T14:15:09.757Z,21.89
2017-08-11T14:16:19.969Z,21.72
2017-08-11T14:17:30.254Z,21.54
2017-08-11T14:18:40.549Z,21.41
2017-08-11T14:19:50.535Z,21.44
2017-08-11T14:21:00.519Z,21.32
2017-08-11T14:22:11.064Z,21.22
2017-08-11T14:23:21.362Z,21.14
2017-08-11T14:24:31.351Z,21.11
2017-08-11T14:25:41.018Z,21.03
2017-08-11T14:26:50.995Z,21.15
2017-08-11T14:28:01.536Z,21.14
2017-08-11T14:29:11.513Z,21.23
2017-08-11T14:30:21.814Z,21.25
2017-08-11T14:31:31.793Z,21.25
2017-08-11T14:32:41.457Z,21.23
2017-08-11T14:33:52.098Z,21.28
2017-08-11T14:35:02.380Z,21.13
2017-08-11T14:36:12.674Z,21.07
2017-08-11T14:37:22.666Z,20.93
2017-08-11T14:38:32.637Z,20.86
2017-08-11T14:39:43.180Z,20.89
2017-08-11T14:40:53.458Z,20.75
2017-08-11T14:42:03.434Z,20.67
2017-08-11T14:43:13.424Z,20.59
2017-08-11T14:44:23.393Z,20.4
2017-08-11T14:45:33.637Z,20.42
2017-08-11T14:46:43.935Z,20.48
2017-08-11T14:47:54.232Z,20.42
2017-08-11T14:49:04.515Z,20.48
2017-08-11T14:50:14.806Z,20.44
2017-08-11T14:51:24.752Z,20.44
2017-08-11T14:52:35.065Z,20.22
2017-08-11T14:53:45.361Z,20.15
2017-08-11T14:54:55.645Z,20.15
2017-08-11T14:56:05.294Z,20.1
2017-08-11T14:57:15.833Z,19.97
2017-08-11T14:58:25.493Z,19.97
2017-08-11T14:59:35.460Z,19.89
2017-08-11T15:00:45.740Z,19.93
2017-08-11T15:01:56.034Z,19.87
2017-08-11T15:03:06.267Z,19.78
2017-08-11T15:04:16.576Z,19.82
2017-08-11T15:05:26.874Z,19.79
2017-08-11T15:06:37.186Z,19.81